K-marine X — WDH2136 — position and weather

sailwx.info

Track history (hours):
 
Tides and Currents Weather Stations Pressure Air Temp Water Temp Dewpoint Dewpoint Depression Visibility Wind Speed Wind Dir Waves Ship Positions

K-marine X

Owner: Yellow Fin Marine Services, LLC, Gray, LA. More information available from US FCC via Universal Licensing System and Coast Guard Vessel Documentation Center.

Last reported at 2018-May-15 17:37 UTC. Time now 2018-Jun-18 11:41 UTC.
Position N 28°19' W 091°54'.
Warning: this ship's position is 33 days out of date.

Length 80 m; draft 3 m.

Type: Other ship. MMSI: 367594740.

Date/timePositionNaut miles runAvg speedWind from/ knotsBaromVisibWave heightAir tempDewpointWater temp
2018-May-15 17:37N 28°19' W 091°54'12 5.3
2018-May-15 15:17N 28°14' W 092°07'6 8.7
2018-May-15 14:39N 28°14' W 092°01'5 5.2
2018-May-15 13:36N 28°19' W 092°01'2 8.9
2018-May-15 13:22N 28°21' W 092°02'34 7.9
2018-May-15 09:02N 28°54' W 092°13'1 9.2
2018-May-15 08:57N 28°55' W 092°14'4 9.2
2018-May-15 08:30N 28°59' W 092°15'5 9.2
2018-May-15 08:00N 29°03' W 092°17'5 9.0
2018-May-15 07:27N 29°07' W 092°19'5 8.7
2018-May-15 06:51N 29°12' W 092°21'3 7.3
2018-May-15 06:29N 29°15' W 092°21'4 8.6
2018-May-15 05:59N 29°19' W 092°20'4 8.9
2018-May-15 05:30N 29°24' W 092°20'8 7.5
2018-May-15 04:26N 29°31' W 092°19'2 3.8
2018-May-15 03:58N 29°33' W 092°18'1 1.9
2018-May-15 03:31N 29°34' W 092°18'2 3.5
2018-May-15 02:59N 29°36' W 092°18'4 6.5
2018-May-15 02:25N 29°39' W 092°16'3 6.6
2018-May-15 01:58N 29°42' W 092°15'6 0.5
2018-May-14 14:08N 29°47' W 092°10'0 0.0
2018-May-14 13:50N 29°47' W 092°10'0 0.0
2018-May-14 13:29N 29°47' W 092°10'0 0.0
2018-May-14 12:20N 29°47' W 092°10'0 0.0
2018-May-14 11:59N 29°47' W 092°10'0 0.0
2018-May-14 11:29N 29°47' W 092°10'0 0.0
2018-May-14 10:59N 29°47' W 092°10'0 0.1
2018-May-14 06:38N 29°47' W 092°10'1 6.9
2018-May-14 06:30N 29°46' W 092°11'5 8.8
2018-May-14 05:57N 29°42' W 092°15'4 9.2
2018-May-14 05:29N 29°38' W 092°16'4 8.1
2018-May-14 04:56N 29°34' W 092°18'1 3.2
2018-May-14 04:29N 29°33' W 092°18'4 7.8
2018-May-14 03:56N 29°28' W 092°19'4 9.6
2018-May-14 03:30N 29°24' W 092°20'610.0
2018-May-14 02:56N 29°19' W 092°21'  
2018-May-09 01:51N 28°15' W 091°51'6 0.8
2018-May-08 18:39N 28°15' W 091°45'1 9.1
2018-May-08 18:30N 28°15' W 091°46'4 3.4
2018-May-08 17:14N 28°15' W 091°51'1 3.5
2018-May-08 17:00N 28°15' W 091°52'3 5.7
2018-May-08 16:30N 28°18' W 091°53'2 2.2
2018-May-08 15:40N 28°19' W 091°55'8 6.8
2018-May-08 14:31N 28°14' W 092°01'0 0.1
2018-May-08 14:25N 28°14' W 092°01'1 2.6
2018-May-08 14:00N 28°14' W 092°02'5 9.5
2018-May-08 13:30N 28°14' W 092°08'0 0.8
2018-May-08 12:58N 28°15' W 092°07'4 7.5
2018-May-08 12:26N 28°18' W 092°05'7 8.8
2018-May-08 11:39N 28°25' W 092°03'1 9.2
2018-May-08 11:29N 28°26' W 092°02'0 0.3
2018-May-08 10:15N 28°26' W 092°02'0 0.5
2018-May-08 09:49N 28°26' W 092°02'0 0.5
2018-May-08 09:25N 28°26' W 092°02'0 0.2
2018-May-08 08:17N 28°27' W 092°02'2 5.6
2018-May-08 08:00N 28°28' W 092°03'5 9.3
2018-May-08 07:27N 28°33' W 092°05'4 9.2
2018-May-08 07:00N 28°37' W 092°06'5 9.2
2018-May-08 06:30N 28°41' W 092°08'5 9.6
2018-May-08 06:00N 28°45' W 092°10'5 9.7
2018-May-08 05:29N 28°50' W 092°12'4 9.3
2018-May-08 05:01N 28°54' W 092°14'5 9.2
2018-May-08 04:31N 28°59' W 092°15'5 9.1
2018-May-08 04:00N 29°03' W 092°17'5 9.2
2018-May-08 03:28N 29°08' W 092°19'4 9.0
2018-May-08 03:00N 29°12' W 092°21'4 8.7
2018-May-08 02:30N 29°16' W 092°21'5 9.1
2018-May-08 02:00N 29°20' W 092°20'5 9.1
2018-May-08 01:29N 29°25' W 092°20'4 8.2
2018-May-08 01:00N 29°29' W 092°19'3 6.4
2018-May-08 00:30N 29°32' W 092°18'16 1.6
2018-May-07 14:15N 29°47' W 092°11'1 0.2
2018-May-07 10:40N 29°47' W 092°10'0 0.0
2018-May-07 10:28N 29°47' W 092°10'0 0.0
2018-May-07 09:58N 29°47' W 092°10'0 0.0
2018-May-07 09:28N 29°47' W 092°10'0 0.0
2018-May-07 08:58N 29°47' W 092°10'0 0.0
2018-May-07 08:25N 29°47' W 092°10'0 0.2
2018-May-07 07:59N 29°47' W 092°10'1 1.7
2018-May-07 07:29N 29°47' W 092°11'0 0.0
2018-May-07 06:53N 29°47' W 092°11'0 0.0
2018-May-07 06:28N 29°47' W 092°11'0 0.0
2018-May-07 05:58N 29°47' W 092°11'1 1.7
2018-May-07 05:29N 29°46' W 092°10'  
Track history (hours):
 
Tides and Currents Weather Stations Pressure Air Temp Water Temp Dewpoint Dewpoint Depression Visibility Wind Speed Wind Dir Waves Ship Positions

K-marine X

Owner: Yellow Fin Marine Services, LLC, Gray, LA. More information available from US FCC via Universal Licensing System and Coast Guard Vessel Documentation Center.

Last reported at 2018-May-15 17:37 UTC. Time now 2018-Jun-18 11:41 UTC.
Position N 28°19' W 091°54'.
Warning: this ship's position is 33 days out of date.

Length 80 m; draft 3 m.

Type: Other ship. MMSI: 367594740.

Date/timePositionNaut miles runAvg speedWind from/ knotsBaromVisibWave heightAir tempDewpointWater temp
2018-May-15 17:37N 28°19' W 091°54'12 5.3
2018-May-15 15:17N 28°14' W 092°07'6 8.7
2018-May-15 14:39N 28°14' W 092°01'5 5.2
2018-May-15 13:36N 28°19' W 092°01'2 8.9
2018-May-15 13:22N 28°21' W 092°02'34 7.9
2018-May-15 09:02N 28°54' W 092°13'1 9.2
2018-May-15 08:57N 28°55' W 092°14'4 9.2
2018-May-15 08:30N 28°59' W 092°15'5 9.2
2018-May-15 08:00N 29°03' W 092°17'5 9.0
2018-May-15 07:27N 29°07' W 092°19'5 8.7
2018-May-15 06:51N 29°12' W 092°21'3 7.3
2018-May-15 06:29N 29°15' W 092°21'4 8.6
2018-May-15 05:59N 29°19' W 092°20'4 8.9
2018-May-15 05:30N 29°24' W 092°20'8 7.5
2018-May-15 04:26N 29°31' W 092°19'2 3.8
2018-May-15 03:58N 29°33' W 092°18'1 1.9
2018-May-15 03:31N 29°34' W 092°18'2 3.5
2018-May-15 02:59N 29°36' W 092°18'4 6.5
2018-May-15 02:25N 29°39' W 092°16'3 6.6
2018-May-15 01:58N 29°42' W 092°15'6 0.5
2018-May-14 14:08N 29°47' W 092°10'0 0.0
2018-May-14 13:50N 29°47' W 092°10'0 0.0
2018-May-14 13:29N 29°47' W 092°10'0 0.0
2018-May-14 12:20N 29°47' W 092°10'0 0.0
2018-May-14 11:59N 29°47' W 092°10'0 0.0
2018-May-14 11:29N 29°47' W 092°10'0 0.0
2018-May-14 10:59N 29°47' W 092°10'0 0.1
2018-May-14 06:38N 29°47' W 092°10'1 6.9
2018-May-14 06:30N 29°46' W 092°11'5 8.8
2018-May-14 05:57N 29°42' W 092°15'4 9.2
2018-May-14 05:29N 29°38' W 092°16'4 8.1
2018-May-14 04:56N 29°34' W 092°18'1 3.2
2018-May-14 04:29N 29°33' W 092°18'4 7.8
2018-May-14 03:56N 29°28' W 092°19'4 9.6
2018-May-14 03:30N 29°24' W 092°20'610.0
2018-May-14 02:56N 29°19' W 092°21'  
2018-May-09 01:51N 28°15' W 091°51'6 0.8
2018-May-08 18:39N 28°15' W 091°45'1 9.1
2018-May-08 18:30N 28°15' W 091°46'4 3.4
2018-May-08 17:14N 28°15' W 091°51'1 3.5
2018-May-08 17:00N 28°15' W 091°52'3 5.7
2018-May-08 16:30N 28°18' W 091°53'2 2.2
2018-May-08 15:40N 28°19' W 091°55'8 6.8
2018-May-08 14:31N 28°14' W 092°01'0 0.1
2018-May-08 14:25N 28°14' W 092°01'1 2.6
2018-May-08 14:00N 28°14' W 092°02'5 9.5
2018-May-08 13:30N 28°14' W 092°08'0 0.8
2018-May-08 12:58N 28°15' W 092°07'4 7.5
2018-May-08 12:26N 28°18' W 092°05'7 8.8
2018-May-08 11:39N 28°25' W 092°03'1 9.2
2018-May-08 11:29N 28°26' W 092°02'0 0.3
2018-May-08 10:15N 28°26' W 092°02'0 0.5
2018-May-08 09:49N 28°26' W 092°02'0 0.5
2018-May-08 09:25N 28°26' W 092°02'0 0.2
2018-May-08 08:17N 28°27' W 092°02'2 5.6
2018-May-08 08:00N 28°28' W 092°03'5 9.3
2018-May-08 07:27N 28°33' W 092°05'4 9.2
2018-May-08 07:00N 28°37' W 092°06'5 9.2
2018-May-08 06:30N 28°41' W 092°08'5 9.6
2018-May-08 06:00N 28°45' W 092°10'5 9.7
2018-May-08 05:29N 28°50' W 092°12'4 9.3
2018-May-08 05:01N 28°54' W 092°14'5 9.2
2018-May-08 04:31N 28°59' W 092°15'5 9.1
2018-May-08 04:00N 29°03' W 092°17'5 9.2
2018-May-08 03:28N 29°08' W 092°19'4 9.0
2018-May-08 03:00N 29°12' W 092°21'4 8.7
2018-May-08 02:30N 29°16' W 092°21'5 9.1
2018-May-08 02:00N 29°20' W 092°20'5 9.1
2018-May-08 01:29N 29°25' W 092°20'4 8.2
2018-May-08 01:00N 29°29' W 092°19'3 6.4
2018-May-08 00:30N 29°32' W 092°18'16 1.6
2018-May-07 14:15N 29°47' W 092°11'1 0.2
2018-May-07 10:40N 29°47' W 092°10'0 0.0
2018-May-07 10:28N 29°47' W 092°10'0 0.0
2018-May-07 09:58N 29°47' W 092°10'0 0.0
2018-May-07 09:28N 29°47' W 092°10'0 0.0
2018-May-07 08:58N 29°47' W 092°10'0 0.0
2018-May-07 08:25N 29°47' W 092°10'0 0.2
2018-May-07 07:59N 29°47' W 092°10'1 1.7
2018-May-07 07:29N 29°47' W 092°11'0 0.0
2018-May-07 06:53N 29°47' W 092°11'0 0.0
2018-May-07 06:28N 29°47' W 092°11'0 0.0
2018-May-07 05:58N 29°47' W 092°11'1 1.7
2018-May-07 05:29N 29°46' W 092°10'  

Dump ship's entire track history